createdAt,value
2022-10-19T00:02:51.141Z,9.32
2022-10-19T00:05:53.013Z,9.25
2022-10-19T00:09:15.082Z,9.53
2022-10-19T00:12:23.326Z,10.70
2022-10-19T00:15:31.680Z,11.05
2022-10-19T00:18:40.132Z,10.88
2022-10-19T00:22:02.163Z,11.18
2022-10-19T00:25:17.065Z,11.03
2022-10-19T00:28:18.847Z,10.67
2022-10-19T00:31:34.100Z,9.50
2022-10-19T00:34:42.859Z,10.50
2022-10-19T00:37:51.053Z,9.88
2022-10-19T00:40:59.889Z,10.17
2022-10-19T00:44:54.064Z,10.67
2022-10-19T00:48:09.075Z,11.18
2022-10-19T00:51:11.384Z,11.20
2022-10-19T00:54:27.098Z,10.05
2022-10-19T00:57:38.090Z,10.00
2022-10-19T01:00:47.149Z,10.40
2022-10-19T01:03:55.035Z,9.18
2022-10-19T01:07:06.423Z,10.00
2022-10-19T01:10:21.096Z,9.15
2022-10-19T01:13:49.094Z,9.70
2022-10-19T01:17:17.592Z,10.13
2022-10-19T01:20:57.102Z,10.02
2022-10-19T01:24:30.236Z,10.05
2022-10-19T01:28:17.092Z,10.50
2022-10-19T01:31:47.128Z,15.10
2022-10-19T01:35:16.943Z,9.80
2022-10-19T01:38:41.172Z,9.40
2022-10-19T01:42:02.760Z,9.52
2022-10-19T01:45:24.121Z,8.73
2022-10-19T01:48:37.764Z,8.70
2022-10-19T01:51:52.166Z,9.27
2022-10-19T01:55:03.415Z,9.65
2022-10-19T01:58:16.083Z,9.70
2022-10-19T02:01:28.444Z,9.25
2022-10-19T02:04:38.075Z,9.13
2022-10-19T02:07:58.115Z,9.23
2022-10-19T02:11:01.576Z,9.05
2022-10-19T02:14:20.172Z,9.52
2022-10-19T02:17:26.964Z,9.45
2022-10-19T02:20:49.133Z,9.30
2022-10-19T02:23:57.130Z,9.30
2022-10-19T02:27:15.112Z,8.68
2022-10-19T02:30:30.116Z,8.93
2022-10-19T02:33:38.169Z,9.38
2022-10-19T02:36:53.231Z,8.00
2022-10-19T02:39:55.491Z,8.03
2022-10-19T02:43:16.182Z,9.55
2022-10-19T02:50:00.132Z,8.27
2022-10-19T02:53:08.175Z,9.67
2022-10-19T02:56:16.864Z,8.70
2022-10-19T02:59:32.171Z,8.55
2022-10-19T03:02:34.090Z,9.02
2022-10-19T03:05:50.136Z,9.13
2022-10-19T03:09:01.160Z,8.47
2022-10-19T03:12:10.990Z,9.77
2022-10-19T03:15:24.140Z,10.20
2022-10-19T03:18:32.712Z,9.82
2022-10-19T03:21:48.226Z,9.35
2022-10-19T03:24:56.666Z,8.97
2022-10-19T03:28:05.131Z,9.80
2022-10-19T03:31:13.738Z,9.98
2022-10-19T03:34:22.155Z,9.82
2022-10-19T03:37:37.413Z,10.43
2022-10-19T03:40:47.175Z,9.80
2022-10-19T03:44:03.435Z,9.77
2022-10-19T03:47:12.242Z,9.40
2022-10-19T03:50:22.266Z,8.88
2022-10-19T03:53:32.487Z,8.82
2022-10-19T03:56:42.355Z,8.23
2022-10-19T03:59:51.292Z,8.37
2022-10-19T04:03:06.217Z,8.45
2022-10-19T04:06:22.159Z,8.15
2022-10-19T04:09:37.235Z,8.30
2022-10-19T04:12:38.985Z,9.40
2022-10-19T04:15:54.184Z,10.90
2022-10-19T04:18:57.201Z,9.55
2022-10-19T04:22:19.245Z,10.18
2022-10-19T04:25:21.011Z,9.10
2022-10-19T04:28:36.266Z,8.30
2022-10-19T04:31:39.138Z,8.37
2022-10-19T04:34:54.190Z,9.18
2022-10-19T04:38:02.186Z,9.10
2022-10-19T04:41:13.847Z,8.93
2022-10-19T04:47:42.199Z,9.67
2022-10-19T04:50:54.806Z,10.10
2022-10-19T04:54:03.203Z,9.73
2022-10-19T04:57:18.256Z,9.75
2022-10-19T05:00:20.683Z,10.70
2022-10-19T05:03:35.215Z,10.03
2022-10-19T05:06:37.356Z,9.48
2022-10-19T05:09:52.192Z,10.02
2022-10-19T05:12:54.224Z,10.18
2022-10-19T05:16:12.220Z,8.73
2022-10-19T05:19:27.300Z,9.73
2022-10-19T05:22:29.311Z,10.63
2022-10-19T05:25:44.219Z,8.57
2022-10-19T05:29:02.462Z,9.65
2022-10-19T05:32:10.789Z,9.77
2022-10-19T05:35:25.249Z,9.77
2022-10-19T05:38:29.409Z,9.98
2022-10-19T05:41:44.268Z,9.68
2022-10-19T05:44:53.183Z,9.60
2022-10-19T05:48:01.349Z,9.27
2022-10-19T05:51:12.247Z,9.43
2022-10-19T05:54:23.754Z,9.32
2022-10-19T05:57:41.305Z,9.52
2022-10-19T06:00:52.770Z,9.60
2022-10-19T06:04:09.916Z,7.80
2022-10-19T06:07:11.729Z,9.07
2022-10-19T06:10:32.238Z,8.65
2022-10-19T06:13:34.788Z,8.07
2022-10-19T06:16:50.290Z,6.95
2022-10-19T06:19:58.920Z,8.13
2022-10-19T06:23:20.247Z,7.83
2022-10-19T06:26:23.003Z,6.40
2022-10-19T06:29:37.271Z,23.50
2022-10-19T06:32:46.320Z,12.90
2022-10-19T06:35:54.888Z,8.33
2022-10-19T06:39:03.292Z,30.30
2022-10-19T06:42:12.069Z,20.73
2022-10-19T06:45:20.290Z,15.15
2022-10-19T06:48:28.835Z,8.05
2022-10-19T06:51:43.338Z,7.90
2022-10-19T06:54:58.368Z,6.90
2022-10-19T06:58:08.060Z,7.55
2022-10-19T07:01:23.404Z,7.28
2022-10-19T07:04:25.196Z,7.28
2022-10-19T07:07:41.335Z,11.60
2022-10-19T07:10:54.439Z,11.80
2022-10-19T07:14:02.292Z,9.38
2022-10-19T07:17:18.280Z,8.68
2022-10-19T07:20:20.536Z,7.10
2022-10-19T07:23:44.368Z,7.03
2022-10-19T07:26:59.302Z,6.90
2022-10-19T07:30:08.577Z,51.28
2022-10-19T07:36:26.299Z,15.75
2022-10-19T07:39:37.075Z,14.83
2022-10-19T07:42:45.340Z,8.63
2022-10-19T07:46:12.330Z,8.48
2022-10-19T07:49:21.144Z,6.87
2022-10-19T07:52:31.828Z,7.57
2022-10-19T07:55:42.930Z,7.87
2022-10-19T07:58:52.323Z,12.27
2022-10-19T08:02:16.765Z,9.13
2022-10-19T08:05:31.378Z,9.23
2022-10-19T08:08:40.352Z,7.40
2022-10-19T08:11:49.088Z,9.50
2022-10-19T08:15:00.222Z,8.02
2022-10-19T08:18:08.920Z,7.53
2022-10-19T08:21:17.442Z,8.00
2022-10-19T08:24:39.436Z,11.30
2022-10-19T08:27:41.443Z,9.27
2022-10-19T08:30:56.364Z,6.93
2022-10-19T08:33:58.878Z,7.80
2022-10-19T08:37:26.126Z,7.83
2022-10-19T08:40:37.731Z,8.63
2022-10-19T08:44:12.359Z,6.95
2022-10-19T08:47:47.358Z,5.72
2022-10-19T08:50:50.508Z,5.30
2022-10-19T08:54:10.390Z,19.80
2022-10-19T08:57:30.606Z,11.20
2022-10-19T09:00:59.392Z,10.93
2022-10-19T09:04:15.542Z,5.87
2022-10-19T09:07:27.696Z,8.90
2022-10-19T09:10:42.442Z,8.93
2022-10-19T09:14:04.837Z,10.00
2022-10-19T09:17:21.359Z,7.25
2022-10-19T09:20:41.520Z,5.15
2022-10-19T09:24:05.363Z,6.57
2022-10-19T09:27:28.390Z,4.37
2022-10-19T09:30:31.555Z,4.32
2022-10-19T09:33:48.387Z,5.15
2022-10-19T09:37:04.471Z,4.00
2022-10-19T09:40:14.512Z,4.63
2022-10-19T09:43:29.358Z,3.97
2022-10-19T09:46:42.003Z,4.00
2022-10-19T09:49:59.555Z,4.37
2022-10-19T09:53:11.395Z,5.55
2022-10-19T09:56:24.856Z,6.33
2022-10-19T09:59:39.417Z,7.47
2022-10-19T10:03:02.375Z,3.37
2022-10-19T10:06:15.238Z,3.80
2022-10-19T10:09:26.448Z,5.90
2022-10-19T10:12:36.383Z,3.70
2022-10-19T10:15:55.412Z,2.93
2022-10-19T10:19:07.968Z,3.45
2022-10-19T10:22:31.510Z,5.72
2022-10-19T10:25:55.483Z,3.97
2022-10-19T10:29:00.665Z,6.33
2022-10-19T10:32:24.454Z,4.57
2022-10-19T10:35:39.459Z,4.15
2022-10-19T10:38:59.663Z,3.00
2022-10-19T10:42:16.695Z,2.85
2022-10-19T10:45:31.172Z,3.13
2022-10-19T10:48:48.518Z,3.77
2022-10-19T10:52:13.452Z,4.37
2022-10-19T10:55:24.412Z,2.75
2022-10-19T10:58:54.405Z,4.00
2022-10-19T11:05:59.412Z,3.03
2022-10-19T11:09:22.462Z,3.05
2022-10-19T11:12:48.503Z,2.30
2022-10-19T11:16:10.439Z,1.87
2022-10-19T11:19:31.488Z,3.97
2022-10-19T11:22:58.867Z,4.10
2022-10-19T11:26:31.583Z,6.18
2022-10-19T11:29:59.447Z,5.18
2022-10-19T11:33:27.685Z,3.35
2022-10-19T11:36:51.053Z,5.07
2022-10-19T11:40:22.656Z,5.90
2022-10-19T11:43:41.545Z,3.80
2022-10-19T11:47:13.976Z,3.75
2022-10-19T11:50:37.467Z,3.62
2022-10-19T11:54:14.697Z,4.40
2022-10-19T11:57:35.685Z,5.73
2022-10-19T12:01:07.502Z,5.03
2022-10-19T12:04:52.001Z,5.07
2022-10-19T12:08:34.998Z,3.42
2022-10-19T12:12:10.556Z,3.67
2022-10-19T12:15:30.787Z,1.63
2022-10-19T12:18:51.522Z,3.85
2022-10-19T12:22:03.662Z,7.70
2022-10-19T12:25:22.568Z,4.50
2022-10-19T12:28:41.512Z,2.62
2022-10-19T12:31:45.670Z,1.83
2022-10-19T12:35:14.664Z,1.67
2022-10-19T12:38:42.298Z,2.40
2022-10-19T12:42:14.764Z,1.50
2022-10-19T12:45:31.114Z,1.80
2022-10-19T12:48:39.491Z,1.90
2022-10-19T12:51:54.675Z,2.70
2022-10-19T12:55:20.192Z,2.03
2022-10-19T12:58:48.884Z,2.30
2022-10-19T13:01:58.693Z,1.92
2022-10-19T13:05:13.552Z,1.53
2022-10-19T13:08:35.619Z,2.00
2022-10-19T13:12:22.437Z,2.55
2022-10-19T13:15:58.511Z,2.35
2022-10-19T13:19:11.638Z,1.80
2022-10-19T13:22:28.271Z,2.07
2022-10-19T13:25:44.534Z,2.33
2022-10-19T13:28:54.447Z,2.17
2022-10-19T13:32:32.885Z,1.80
2022-10-19T13:35:41.140Z,1.87
2022-10-19T13:39:08.571Z,2.73
2022-10-19T13:42:31.749Z,2.20
2022-10-19T13:45:33.696Z,1.90
2022-10-19T13:49:08.649Z,2.42
2022-10-19T13:52:47.596Z,2.20
2022-10-19T13:56:22.580Z,2.17
2022-10-19T13:59:56.548Z,1.90
2022-10-19T14:03:20.039Z,2.83
2022-10-19T14:06:49.663Z,2.05
2022-10-19T14:10:10.619Z,2.40
2022-10-19T14:13:25.535Z,3.10
2022-10-19T14:16:33.555Z,2.42
2022-10-19T14:19:46.107Z,2.85
2022-10-19T14:23:01.639Z,6.32
2022-10-19T14:26:23.547Z,2.90
2022-10-19T14:29:25.991Z,2.53
2022-10-19T14:32:41.584Z,3.08
2022-10-19T14:35:50.696Z,2.62
2022-10-19T14:39:02.565Z,2.60
2022-10-19T14:42:11.196Z,2.40
2022-10-19T14:45:29.590Z,2.67
2022-10-19T14:48:37.583Z,2.60
2022-10-19T14:52:01.687Z,3.00
2022-10-19T14:55:20.610Z,3.00
2022-10-19T14:58:35.609Z,2.40
2022-10-19T15:01:44.635Z,3.17
2022-10-19T15:04:56.955Z,2.90
2022-10-19T15:08:16.879Z,3.25
2022-10-19T15:11:30.319Z,2.90
2022-10-19T15:14:38.588Z,2.70
2022-10-19T15:18:16.489Z,2.60
2022-10-19T15:21:33.556Z,2.80
2022-10-19T15:25:14.622Z,2.60
2022-10-19T15:28:41.931Z,2.50
2022-10-19T15:31:50.462Z,2.70
2022-10-19T15:35:08.626Z,3.10
2022-10-19T15:38:25.676Z,2.67
2022-10-19T15:41:43.686Z,3.78
2022-10-19T15:44:58.995Z,3.15
2022-10-19T15:48:25.384Z,4.10
2022-10-19T15:51:39.670Z,2.90
2022-10-19T15:54:50.095Z,3.45
2022-10-19T15:58:07.899Z,3.40
2022-10-19T16:01:21.071Z,4.18
2022-10-19T16:04:29.620Z,4.60
2022-10-19T16:07:47.669Z,2.90
2022-10-19T16:10:58.617Z,3.28
2022-10-19T16:14:13.875Z,2.37
2022-10-19T16:17:24.208Z,3.72
2022-10-19T16:20:40.663Z,2.37
2022-10-19T16:23:56.016Z,2.57
2022-10-19T16:27:04.666Z,4.30
2022-10-19T16:30:21.695Z,4.03
2022-10-19T16:33:30.630Z,2.55
2022-10-19T16:36:45.631Z,3.00
2022-10-19T16:40:00.683Z,3.10
2022-10-19T16:43:02.760Z,3.60
2022-10-19T16:46:18.644Z,4.75
2022-10-19T16:49:20.755Z,3.95
2022-10-19T16:52:37.964Z,2.90
2022-10-19T16:55:40.960Z,4.53
2022-10-19T16:58:56.712Z,3.67
2022-10-19T17:02:05.572Z,2.85
2022-10-19T17:05:21.675Z,4.43
2022-10-19T17:09:30.235Z,3.00
2022-10-19T17:12:25.137Z,3.43
2022-10-19T17:15:42.924Z,3.37
2022-10-19T17:18:55.811Z,4.45
2022-10-19T17:22:16.927Z,4.30
2022-10-19T17:25:25.855Z,3.60
2022-10-19T17:28:45.655Z,3.57
2022-10-19T17:31:54.769Z,4.00
2022-10-19T17:35:10.871Z,4.22
2022-10-19T17:38:20.360Z,4.30
2022-10-19T17:41:29.676Z,5.47
2022-10-19T17:48:03.711Z,4.70
2022-10-19T17:51:19.490Z,4.40
2022-10-19T17:54:27.754Z,5.00
2022-10-19T17:57:43.703Z,3.43
2022-10-19T18:00:53.627Z,4.50
2022-10-19T18:04:08.675Z,3.75
2022-10-19T18:07:20.756Z,3.90
2022-10-19T18:10:36.720Z,3.83
2022-10-19T18:13:40.180Z,4.60
2022-10-19T18:16:54.715Z,3.53
2022-10-19T18:20:03.684Z,4.32
2022-10-19T18:23:21.259Z,4.62
2022-10-19T18:26:32.672Z,3.65
2022-10-19T18:29:48.727Z,4.37
2022-10-19T18:32:57.964Z,6.00
2022-10-19T18:36:10.301Z,5.00
2022-10-19T18:39:20.783Z,3.90
2022-10-19T18:42:36.091Z,5.97
2022-10-19T18:45:45.761Z,4.23
2022-10-19T18:48:54.995Z,4.37
2022-10-19T18:52:03.772Z,3.42
2022-10-19T18:55:12.655Z,3.17
2022-10-19T18:58:43.719Z,3.50
2022-10-19T19:01:46.045Z,3.00
2022-10-19T19:05:00.823Z,3.30
2022-10-19T19:08:10.027Z,5.35
2022-10-19T19:11:21.791Z,3.22
2022-10-19T19:14:36.747Z,3.20
2022-10-19T19:17:45.984Z,3.63
2022-10-19T19:20:57.820Z,4.83
2022-10-19T19:24:16.511Z,3.53
2022-10-19T19:27:29.542Z,3.33
2022-10-19T19:30:43.816Z,4.00
2022-10-19T19:33:53.835Z,3.60
2022-10-19T19:37:04.086Z,4.53
2022-10-19T19:40:15.757Z,3.65
2022-10-19T19:43:25.751Z,3.40
2022-10-19T19:46:35.702Z,3.30
2022-10-19T19:49:45.308Z,2.87
2022-10-19T19:52:53.720Z,3.70
2022-10-19T19:56:04.120Z,3.30
2022-10-19T19:59:12.750Z,3.20
2022-10-19T20:02:28.797Z,2.80
2022-10-19T20:05:38.713Z,2.93
2022-10-19T20:08:54.868Z,3.30
2022-10-19T20:12:03.839Z,2.70
2022-10-19T20:15:22.784Z,2.75
2022-10-19T20:18:32.047Z,3.40
2022-10-19T20:21:40.832Z,2.87
2022-10-19T20:24:56.115Z,3.67
2022-10-19T20:28:07.876Z,3.42
2022-10-19T20:31:23.849Z,3.25
2022-10-19T20:34:29.308Z,3.25
2022-10-19T20:37:46.911Z,3.03
2022-10-19T20:40:50.959Z,2.67
2022-10-19T20:44:06.791Z,2.08
2022-10-19T20:47:16.860Z,2.67
2022-10-19T20:50:32.751Z,2.45
2022-10-19T20:53:34.869Z,2.67
2022-10-19T20:56:49.844Z,2.77
2022-10-19T20:59:58.796Z,3.25
2022-10-19T21:03:13.789Z,2.92
2022-10-19T21:06:22.815Z,2.75
2022-10-19T21:09:37.781Z,2.70
2022-10-19T21:12:39.580Z,2.47
2022-10-19T21:16:00.769Z,2.70
2022-10-19T21:19:19.917Z,2.67
2022-10-19T21:22:37.828Z,3.22
2022-10-19T21:25:45.814Z,2.70
2022-10-19T21:29:01.845Z,2.53
2022-10-19T21:32:15.259Z,2.65
2022-10-19T21:35:23.506Z,2.65
2022-10-19T21:38:31.845Z,2.30
2022-10-19T21:41:46.839Z,2.20
2022-10-19T21:45:01.429Z,2.40
2022-10-19T21:48:23.927Z,2.28
2022-10-19T21:51:45.924Z,2.83
2022-10-19T21:54:54.600Z,1.98
2022-10-19T21:58:02.845Z,2.17
2022-10-19T22:01:20.079Z,2.17
2022-10-19T22:04:28.807Z,2.90
2022-10-19T22:07:37.641Z,2.05
2022-10-19T22:10:46.824Z,2.10
2022-10-19T22:14:04.824Z,2.50
2022-10-19T22:17:07.071Z,2.27
2022-10-19T22:20:22.933Z,3.03
2022-10-19T22:23:44.919Z,2.30
2022-10-19T22:26:48.245Z,2.00
2022-10-19T22:30:02.847Z,2.60
2022-10-19T22:33:04.547Z,2.60
2022-10-19T22:36:18.827Z,1.92
2022-10-19T22:39:20.795Z,2.08
2022-10-19T22:42:55.843Z,2.20
2022-10-19T22:45:57.652Z,2.50
2022-10-19T22:49:12.886Z,2.00
2022-10-19T22:52:20.938Z,2.85
2022-10-19T22:55:29.543Z,2.17
2022-10-19T22:58:37.857Z,2.42
2022-10-19T23:01:46.719Z,2.10
2022-10-19T23:04:54.796Z,2.10
2022-10-19T23:08:03.515Z,2.60
2022-10-19T23:11:18.893Z,4.47
2022-10-19T23:14:20.678Z,3.35
2022-10-19T23:17:36.072Z,2.20
2022-10-19T23:20:55.806Z,2.20
2022-10-19T23:24:10.846Z,1.90
2022-10-19T23:27:25.908Z,2.10
2022-10-19T23:30:37.721Z,2.10
2022-10-19T23:33:53.858Z,2.13
2022-10-19T23:37:08.886Z,2.40
2022-10-19T23:40:26.103Z,2.50
2022-10-19T23:46:43.411Z,2.30
2022-10-19T23:49:57.952Z,2.40
2022-10-19T23:52:59.688Z,1.90
2022-10-19T23:56:21.026Z,3.05
2022-10-19T23:59:29.519Z,2.42
